Ashwaubenon, Wisconsin
Current Conditions -  °F | °C
As of 1:53 PM on Friday 21 Nov 2014 (Local Time) from KGRB Reporting Station
Clear Clear  
Wind Chill: 12°   Ceiling: Unl
Heat Index: 26°   Visibility: 10mi
Dew Point:   Wind: 20mph
Humidity: 43%   Direction: 210°SSW
Pressure: 30.26"   Gusts: 24mph
Location:  44.48°N, 88.07°W
Report Text: KGRB 211953Z 21017G21KT 10SM CLR M03/M14 A3026 RMK AO2 SLP263 T10331144
Loading
Personal Weather Stations






























Interactive Weather Map New forecast layout! Learn more

10-Day Weather Forecast

Advertisements
Track Severe Weather on mobile